Buoy 46928

sailwx.info

Track history (hours):
 
Tides and Currents Weather Stations Pressure Air Temp Water Temp Dewpoint Dewpoint Depression Visibility Wind Speed Wind Dir Waves Ship Positions

Drifting buoy 46928

Last reported at 2014-Aug-21 06:30 UTC. Time now 2014-Aug-21 12:14 UTC.
Position N 47°28' W 155°36'.

Barometer 1020.0 mb
Water temperature 14.0 ° C

Date/timePositionNaut miles runAvg speedWind from/ knotsBaromVisibWave heightAir tempDewpointWater temp
2014-Aug-21 06:30N 47°28' W 155°36'1 0.5 1020.0 14.0
2014-Aug-21 03:30N 47°29' W 155°37'1 0.8 1020.0 14.0
2014-Aug-21 02:30N 47°29' W 155°38'1 0.5 1019.9 14.0
2014-Aug-21 01:30N 47°29' W 155°38'1 0.8 1020.2 14.0
2014-Aug-21 00:30N 47°30' W 155°38'2 1.6 1020.0 14.0
2014-Aug-20 23:30N 47°28' W 155°39'1 0.5 1020.6 14.0
2014-Aug-20 21:30N 47°28' W 155°40'2 0.4 1020.6 14.0
2014-Aug-20 17:30N 47°27' W 155°37'2 0.5 1020.2 13.8
2014-Aug-20 13:30N 47°29' W 155°39'1 0.6 1019.0 13.8
2014-Aug-20 11:30N 47°28' W 155°40'0 0.0 1019.1 13.8
2014-Aug-20 10:30N 47°28' W 155°40'0 0.0 1019.4 13.8
2014-Aug-20 09:30N 47°28' W 155°40'0 0.1 1019.2 13.7
2014-Aug-20 07:30N 47°28' W 155°40'0 0.0 1018.6 13.8
2014-Aug-20 03:30N 47°28' W 155°40'1 0.2 1017.4 13.9
2014-Aug-20 00:30N 47°28' W 155°39'1 1.2 1017.3 13.8
2014-Aug-19 23:30N 47°29' W 155°41'1 0.2 1017.5 13.8
2014-Aug-19 20:30N 47°29' W 155°40'1 0.7 1016.5 13.7
2014-Aug-19 19:30N 47°29' W 155°41'0 0.1 1015.8 13.7
2014-Aug-19 16:30N 47°29' W 155°42'1 0.4 1014.4 13.6
2014-Aug-19 14:30N 47°29' W 155°43'1 0.5 1013.3 13.6
2014-Aug-19 13:30N 47°29' W 155°43'0 0.0 1013.1 13.6
2014-Aug-19 12:30N 47°29' W 155°43'1 0.3 1012.8 13.6
2014-Aug-19 07:30N 47°30' W 155°45'0 0.3 1012.5 13.6
2014-Aug-19 06:30N 47°30' W 155°45'0 0.2 1012.2 13.7
2014-Aug-19 04:30N 47°30' W 155°46'1 0.7 1012.4 13.7
2014-Aug-19 03:30N 47°30' W 155°45'1 0.7 1012.6 13.7
2014-Aug-19 01:30N 47°30' W 155°47'0 0.0 1013.7 13.7
2014-Aug-19 00:30N 47°30' W 155°47'1 0.7 1014.6 13.6
2014-Aug-18 23:30N 47°30' W 155°48'1 0.3 1015.3 13.6
2014-Aug-18 21:30N 47°29' W 155°48'1 0.9 1016.8 13.6
2014-Aug-18 20:30N 47°29' W 155°49'2 0.8 1017.6 13.6
2014-Aug-18 18:30N 47°27' W 155°49'1 0.8 1018.6 13.6
2014-Aug-18 17:30N 47°28' W 155°49'1 0.3 1019.1 13.6
2014-Aug-18 14:30N 47°27' W 155°49'0 0.2 1019.3 13.6
2014-Aug-18 13:30N 47°27' W 155°49'0 0.2 1019.5 13.6
2014-Aug-18 11:30N 47°28' W 155°48'0 0.1 1020.5 13.6
2014-Aug-18 10:30N 47°28' W 155°48'0 0.0 1021.0 13.6
2014-Aug-18 09:30N 47°28' W 155°48'0 0.2 1020.8 13.6
2014-Aug-18 08:30N 47°28' W 155°48'1 0.6 1021.2 13.6
2014-Aug-18 07:30N 47°28' W 155°48'1 0.3 1021.0 13.6
2014-Aug-18 04:30N 47°28' W 155°49'2 1.6 1019.6 13.7
2014-Aug-18 03:30N 47°30' W 155°49'2 0.8 1019.3 13.7
2014-Aug-18 01:30N 47°28' W 155°50'1 1.0 1018.5 13.6
2014-Aug-18 00:30N 47°28' W 155°49'1 0.3 1018.7 13.6
2014-Aug-17 21:30N 47°28' W 155°50'1 0.3 1017.7 13.5
2014-Aug-17 19:30N 47°28' W 155°49'0 0.0 1016.9 13.4
2014-Aug-17 17:30N 47°28' W 155°49'0 0.1 1017.0 13.3
2014-Aug-17 16:30N 47°28' W 155°49'0 0.0 1017.1 13.3
2014-Aug-17 15:30N 47°28' W 155°49'0 0.3 1016.8 13.4
2014-Aug-17 14:30N 47°29' W 155°49'1 0.5 1016.6 13.4
2014-Aug-17 12:30N 47°29' W 155°50'1 0.2 1016.8 13.4
2014-Aug-17 08:30N 47°29' W 155°51'0 0.0 1014.8 13.4
2014-Aug-17 05:30N 47°29' W 155°51'0 0.0 1012.5 13.5
2014-Aug-17 02:30N 47°29' W 155°51'0 0.0 1010.1 13.5
2014-Aug-17 01:30N 47°29' W 155°51'0 0.2 1009.4 13.5
2014-Aug-17 00:30N 47°29' W 155°51'0 0.1 1009.1 13.5
2014-Aug-16 22:30N 47°29' W 155°51'1 1.4 1008.4 13.5
2014-Aug-16 21:30N 47°30' W 155°53'3 0.8 1008.1 13.5
2014-Aug-16 18:30N 47°30' W 155°56'0 0.2 1007.7 13.5
2014-Aug-16 16:30N 47°30' W 155°57'1 0.9 1007.4 13.5
2014-Aug-16 15:30N 47°30' W 155°58'1 0.7 1007.7 13.5
2014-Aug-16 14:30N 47°29' W 155°58'1 0.3 1008.0 13.5
2014-Aug-16 12:30N 47°29' W 155°58'0 0.1 1008.3 13.5
2014-Aug-16 07:30N 47°28' W 155°59'2 1.6 1008.8 13.5
2014-Aug-16 06:30N 47°30' W 155°59'1 1.0 1008.1 13.5
2014-Aug-16 05:30N 47°29' W 155°59'1 0.5 1007.7 13.5
2014-Aug-16 03:30N 47°30' W 155°59'1 0.5 1006.9 13.6
2014-Aug-16 02:30N 47°30' W 155°58'4 0.9 1006.5 13.6
2014-Aug-15 22:30N 47°30' W 156°03'2 0.6 1007.1 13.6
2014-Aug-15 18:30N 47°29' W 156°06'1 0.3 1009.3 13.6
2014-Aug-15 15:30N 47°29' W 156°07'0 0.0 1010.9 13.6
2014-Aug-15 14:30N 47°29' W 156°07'0 0.4 1011.5 13.6
2014-Aug-15 13:30N 47°30' W 156°08'0 0.0 1011.9 13.6
2014-Aug-15 12:30N 47°30' W 156°08'0 0.0 1011.8 13.6
2014-Aug-15 11:30N 47°30' W 156°08'1 0.3 1012.4 13.6
2014-Aug-15 06:30N 47°29' W 156°09'0 0.2 1013.2 13.6
2014-Aug-15 04:30N 47°28' W 156°09'1 0.5 1012.6 13.7
2014-Aug-15 03:30N 47°28' W 156°09'0 0.4 1012.3 13.8
2014-Aug-15 02:30N 47°28' W 156°09'1 0.5 1012.0 13.8
2014-Aug-15 00:30N 47°29' W 156°09'0 0.0 1011.7 13.8
2014-Aug-14 23:30N 47°29' W 156°09'0 0.5 1011.3 13.7
2014-Aug-14 22:30N 47°29' W 156°10'2 1.8 1011.0 13.7
2014-Aug-14 21:30N 47°28' W 156°12'1 0.3 1010.9 13.6
2014-Aug-14 19:30N 47°29' W 156°12'0 0.0 1010.1 13.5
2014-Aug-14 17:30N 47°29' W 156°12'1 0.6 1009.0 13.5
2014-Aug-14 16:30N 47°28' W 156°12'0 0.0 1008.3 13.5
2014-Aug-14 15:30N 47°28' W 156°12'2 1.1 1007.7 13.5
2014-Aug-14 13:30N 47°30' W 156°13'0 0.0 1006.5 13.5
2014-Aug-14 12:30N 47°30' W 156°13'0 0.1 1006.0 13.5
2014-Aug-14 06:30N 47°30' W 156°14'1 0.4 1003.7 13.5
2014-Aug-14 03:30N 47°30' W 156°15'1 0.3 1003.3 13.5
2014-Aug-14 01:30N 47°29' W 156°16'1 0.6 1002.8 13.6
2014-Aug-14 00:30N 47°30' W 156°17'1 0.2 1002.6 13.6
2014-Aug-13 21:30N 47°30' W 156°16'2 0.4 1002.8 13.6
2014-Aug-13 16:30N 47°31' W 156°18'0 0.0 1002.2 13.4
2014-Aug-13 15:30N 47°31' W 156°18'1 0.7 1002.1 13.4
2014-Aug-13 13:30N 47°31' W 156°20'1 0.3 1002.3 13.4
2014-Aug-13 11:30N 47°31' W 156°21'1 0.2 1002.8 13.4
2014-Aug-13 08:30N 47°31' W 156°22'0 0.1 1003.7 13.4
2014-Aug-13 06:30N 47°31' W 156°22'1 0.2 1004.2 13.5
2014-Aug-13 03:30N 47°31' W 156°23'1 0.4 1004.0 13.6
2014-Aug-13 01:30N 47°32' W 156°24'1 0.9 1004.1 13.6
2014-Aug-13 00:30N 47°33' W 156°24'0 0.0 1004.4 13.5
2014-Aug-12 22:30N 47°33' W 156°24'2 1.6 1004.8 13.4
2014-Aug-12 21:30N 47°32' W 156°26'2 0.3 1005.4 13.4
2014-Aug-12 15:30N 47°32' W 156°29'1 0.3 1007.3 13.3
2014-Aug-12 13:30N 47°33' W 156°28'1 1.2 1009.0 13.3
2014-Aug-12 12:30N 47°33' W 156°30'2 1.7 1009.3 13.3
2014-Aug-12 11:30N 47°34' W 156°32'1 0.2 1010.2 13.3
2014-Aug-12 05:30N 47°33' W 156°34'0 0.1 1012.6 13.4
2014-Aug-12 02:30N 47°34' W 156°34'1 0.3 1013.7 13.4
2014-Aug-12 00:30N 47°34' W 156°34'1 1.4 1014.1 13.5
2014-Aug-11 23:30N 47°34' W 156°36'2 0.8 1014.7 13.4
2014-Aug-11 21:30N 47°35' W 156°35'2 2.3 1014.8 13.4
2014-Aug-11 20:30N 47°35' W 156°38'0 0.0 1014.3 13.5
2014-Aug-11 19:30N 47°35' W 156°38'0 0.0 1014.6 13.4
2014-Aug-11 17:30N 47°35' W 156°38'0 0.0 1015.1 13.4
2014-Aug-11 16:30N 47°35' W 156°38'1 0.9 1015.1 13.4
2014-Aug-11 15:30N 47°36' W 156°39'2 0.8 1015.1 13.4
2014-Aug-11 13:30N 47°36' W 156°41'1 0.2 1015.2 13.4
2014-Aug-11 08:30N 47°35' W 156°41'0 0.2 1015.2 13.4
2014-Aug-11 07:30N 47°35' W 156°41'   1015.2 13.4
Track history (hours):
 
Tides and Currents Weather Stations Pressure Air Temp Water Temp Dewpoint Dewpoint Depression Visibility Wind Speed Wind Dir Waves Ship Positions

Drifting buoy 46928

Last reported at 2014-Aug-21 06:30 UTC. Time now 2014-Aug-21 12:14 UTC.
Position N 47°28' W 155°36'.

Barometer 1020.0 mb
Water temperature 14.0 ° C

Date/timePositionNaut miles runAvg speedWind from/ knotsBaromVisibWave heightAir tempDewpointWater temp
2014-Aug-21 06:30N 47°28' W 155°36'1 0.5 1020.0 14.0
2014-Aug-21 03:30N 47°29' W 155°37'1 0.8 1020.0 14.0
2014-Aug-21 02:30N 47°29' W 155°38'1 0.5 1019.9 14.0
2014-Aug-21 01:30N 47°29' W 155°38'1 0.8 1020.2 14.0
2014-Aug-21 00:30N 47°30' W 155°38'2 1.6 1020.0 14.0
2014-Aug-20 23:30N 47°28' W 155°39'1 0.5 1020.6 14.0
2014-Aug-20 21:30N 47°28' W 155°40'2 0.4 1020.6 14.0
2014-Aug-20 17:30N 47°27' W 155°37'2 0.5 1020.2 13.8
2014-Aug-20 13:30N 47°29' W 155°39'1 0.6 1019.0 13.8
2014-Aug-20 11:30N 47°28' W 155°40'0 0.0 1019.1 13.8
2014-Aug-20 10:30N 47°28' W 155°40'0 0.0 1019.4 13.8
2014-Aug-20 09:30N 47°28' W 155°40'0 0.1 1019.2 13.7
2014-Aug-20 07:30N 47°28' W 155°40'0 0.0 1018.6 13.8
2014-Aug-20 03:30N 47°28' W 155°40'1 0.2 1017.4 13.9
2014-Aug-20 00:30N 47°28' W 155°39'1 1.2 1017.3 13.8
2014-Aug-19 23:30N 47°29' W 155°41'1 0.2 1017.5 13.8
2014-Aug-19 20:30N 47°29' W 155°40'1 0.7 1016.5 13.7
2014-Aug-19 19:30N 47°29' W 155°41'0 0.1 1015.8 13.7
2014-Aug-19 16:30N 47°29' W 155°42'1 0.4 1014.4 13.6
2014-Aug-19 14:30N 47°29' W 155°43'1 0.5 1013.3 13.6
2014-Aug-19 13:30N 47°29' W 155°43'0 0.0 1013.1 13.6
2014-Aug-19 12:30N 47°29' W 155°43'1 0.3 1012.8 13.6
2014-Aug-19 07:30N 47°30' W 155°45'0 0.3 1012.5 13.6
2014-Aug-19 06:30N 47°30' W 155°45'0 0.2 1012.2 13.7
2014-Aug-19 04:30N 47°30' W 155°46'1 0.7 1012.4 13.7
2014-Aug-19 03:30N 47°30' W 155°45'1 0.7 1012.6 13.7
2014-Aug-19 01:30N 47°30' W 155°47'0 0.0 1013.7 13.7
2014-Aug-19 00:30N 47°30' W 155°47'1 0.7 1014.6 13.6
2014-Aug-18 23:30N 47°30' W 155°48'1 0.3 1015.3 13.6
2014-Aug-18 21:30N 47°29' W 155°48'1 0.9 1016.8 13.6
2014-Aug-18 20:30N 47°29' W 155°49'2 0.8 1017.6 13.6
2014-Aug-18 18:30N 47°27' W 155°49'1 0.8 1018.6 13.6
2014-Aug-18 17:30N 47°28' W 155°49'1 0.3 1019.1 13.6
2014-Aug-18 14:30N 47°27' W 155°49'0 0.2 1019.3 13.6
2014-Aug-18 13:30N 47°27' W 155°49'0 0.2 1019.5 13.6
2014-Aug-18 11:30N 47°28' W 155°48'0 0.1 1020.5 13.6
2014-Aug-18 10:30N 47°28' W 155°48'0 0.0 1021.0 13.6
2014-Aug-18 09:30N 47°28' W 155°48'0 0.2 1020.8 13.6
2014-Aug-18 08:30N 47°28' W 155°48'1 0.6 1021.2 13.6
2014-Aug-18 07:30N 47°28' W 155°48'1 0.3 1021.0 13.6
2014-Aug-18 04:30N 47°28' W 155°49'2 1.6 1019.6 13.7
2014-Aug-18 03:30N 47°30' W 155°49'2 0.8 1019.3 13.7
2014-Aug-18 01:30N 47°28' W 155°50'1 1.0 1018.5 13.6
2014-Aug-18 00:30N 47°28' W 155°49'1 0.3 1018.7 13.6
2014-Aug-17 21:30N 47°28' W 155°50'1 0.3 1017.7 13.5
2014-Aug-17 19:30N 47°28' W 155°49'0 0.0 1016.9 13.4
2014-Aug-17 17:30N 47°28' W 155°49'0 0.1 1017.0 13.3
2014-Aug-17 16:30N 47°28' W 155°49'0 0.0 1017.1 13.3
2014-Aug-17 15:30N 47°28' W 155°49'0 0.3 1016.8 13.4
2014-Aug-17 14:30N 47°29' W 155°49'1 0.5 1016.6 13.4
2014-Aug-17 12:30N 47°29' W 155°50'1 0.2 1016.8 13.4
2014-Aug-17 08:30N 47°29' W 155°51'0 0.0 1014.8 13.4
2014-Aug-17 05:30N 47°29' W 155°51'0 0.0 1012.5 13.5
2014-Aug-17 02:30N 47°29' W 155°51'0 0.0 1010.1 13.5
2014-Aug-17 01:30N 47°29' W 155°51'0 0.2 1009.4 13.5
2014-Aug-17 00:30N 47°29' W 155°51'0 0.1 1009.1 13.5
2014-Aug-16 22:30N 47°29' W 155°51'1 1.4 1008.4 13.5
2014-Aug-16 21:30N 47°30' W 155°53'3 0.8 1008.1 13.5
2014-Aug-16 18:30N 47°30' W 155°56'0 0.2 1007.7 13.5
2014-Aug-16 16:30N 47°30' W 155°57'1 0.9 1007.4 13.5
2014-Aug-16 15:30N 47°30' W 155°58'1 0.7 1007.7 13.5
2014-Aug-16 14:30N 47°29' W 155°58'1 0.3 1008.0 13.5
2014-Aug-16 12:30N 47°29' W 155°58'0 0.1 1008.3 13.5
2014-Aug-16 07:30N 47°28' W 155°59'2 1.6 1008.8 13.5
2014-Aug-16 06:30N 47°30' W 155°59'1 1.0 1008.1 13.5
2014-Aug-16 05:30N 47°29' W 155°59'1 0.5 1007.7 13.5
2014-Aug-16 03:30N 47°30' W 155°59'1 0.5 1006.9 13.6
2014-Aug-16 02:30N 47°30' W 155°58'4 0.9 1006.5 13.6
2014-Aug-15 22:30N 47°30' W 156°03'2 0.6 1007.1 13.6
2014-Aug-15 18:30N 47°29' W 156°06'1 0.3 1009.3 13.6
2014-Aug-15 15:30N 47°29' W 156°07'0 0.0 1010.9 13.6
2014-Aug-15 14:30N 47°29' W 156°07'0 0.4 1011.5 13.6
2014-Aug-15 13:30N 47°30' W 156°08'0 0.0 1011.9 13.6
2014-Aug-15 12:30N 47°30' W 156°08'0 0.0 1011.8 13.6
2014-Aug-15 11:30N 47°30' W 156°08'1 0.3 1012.4 13.6
2014-Aug-15 06:30N 47°29' W 156°09'0 0.2 1013.2 13.6
2014-Aug-15 04:30N 47°28' W 156°09'1 0.5 1012.6 13.7
2014-Aug-15 03:30N 47°28' W 156°09'0 0.4 1012.3 13.8
2014-Aug-15 02:30N 47°28' W 156°09'1 0.5 1012.0 13.8
2014-Aug-15 00:30N 47°29' W 156°09'0 0.0 1011.7 13.8
2014-Aug-14 23:30N 47°29' W 156°09'0 0.5 1011.3 13.7
2014-Aug-14 22:30N 47°29' W 156°10'2 1.8 1011.0 13.7
2014-Aug-14 21:30N 47°28' W 156°12'1 0.3 1010.9 13.6
2014-Aug-14 19:30N 47°29' W 156°12'0 0.0 1010.1 13.5
2014-Aug-14 17:30N 47°29' W 156°12'1 0.6 1009.0 13.5
2014-Aug-14 16:30N 47°28' W 156°12'0 0.0 1008.3 13.5
2014-Aug-14 15:30N 47°28' W 156°12'2 1.1 1007.7 13.5
2014-Aug-14 13:30N 47°30' W 156°13'0 0.0 1006.5 13.5
2014-Aug-14 12:30N 47°30' W 156°13'0 0.1 1006.0 13.5
2014-Aug-14 06:30N 47°30' W 156°14'1 0.4 1003.7 13.5
2014-Aug-14 03:30N 47°30' W 156°15'1 0.3 1003.3 13.5
2014-Aug-14 01:30N 47°29' W 156°16'1 0.6 1002.8 13.6
2014-Aug-14 00:30N 47°30' W 156°17'1 0.2 1002.6 13.6
2014-Aug-13 21:30N 47°30' W 156°16'2 0.4 1002.8 13.6
2014-Aug-13 16:30N 47°31' W 156°18'0 0.0 1002.2 13.4
2014-Aug-13 15:30N 47°31' W 156°18'1 0.7 1002.1 13.4
2014-Aug-13 13:30N 47°31' W 156°20'1 0.3 1002.3 13.4
2014-Aug-13 11:30N 47°31' W 156°21'1 0.2 1002.8 13.4
2014-Aug-13 08:30N 47°31' W 156°22'0 0.1 1003.7 13.4
2014-Aug-13 06:30N 47°31' W 156°22'1 0.2 1004.2 13.5
2014-Aug-13 03:30N 47°31' W 156°23'1 0.4 1004.0 13.6
2014-Aug-13 01:30N 47°32' W 156°24'1 0.9 1004.1 13.6
2014-Aug-13 00:30N 47°33' W 156°24'0 0.0 1004.4 13.5
2014-Aug-12 22:30N 47°33' W 156°24'2 1.6 1004.8 13.4
2014-Aug-12 21:30N 47°32' W 156°26'2 0.3 1005.4 13.4
2014-Aug-12 15:30N 47°32' W 156°29'1 0.3 1007.3 13.3
2014-Aug-12 13:30N 47°33' W 156°28'1 1.2 1009.0 13.3
2014-Aug-12 12:30N 47°33' W 156°30'2 1.7 1009.3 13.3
2014-Aug-12 11:30N 47°34' W 156°32'1 0.2 1010.2 13.3
2014-Aug-12 05:30N 47°33' W 156°34'0 0.1 1012.6 13.4
2014-Aug-12 02:30N 47°34' W 156°34'1 0.3 1013.7 13.4
2014-Aug-12 00:30N 47°34' W 156°34'1 1.4 1014.1 13.5
2014-Aug-11 23:30N 47°34' W 156°36'2 0.8 1014.7 13.4
2014-Aug-11 21:30N 47°35' W 156°35'2 2.3 1014.8 13.4
2014-Aug-11 20:30N 47°35' W 156°38'0 0.0 1014.3 13.5
2014-Aug-11 19:30N 47°35' W 156°38'0 0.0 1014.6 13.4
2014-Aug-11 17:30N 47°35' W 156°38'0 0.0 1015.1 13.4
2014-Aug-11 16:30N 47°35' W 156°38'1 0.9 1015.1 13.4
2014-Aug-11 15:30N 47°36' W 156°39'2 0.8 1015.1 13.4
2014-Aug-11 13:30N 47°36' W 156°41'1 0.2 1015.2 13.4
2014-Aug-11 08:30N 47°35' W 156°41'0 0.2 1015.2 13.4
2014-Aug-11 07:30N 47°35' W 156°41'   1015.2 13.4

Dump ship's entire track history